createdAt,value
2023-01-20T00:15:28.415Z,91771.00
2023-01-20T00:16:28.324Z,91773.00
2023-01-20T00:17:28.278Z,91773.00
2023-01-20T00:18:28.218Z,91773.00
2023-01-20T00:19:28.166Z,91777.00
2023-01-20T00:20:28.143Z,91777.00
2023-01-20T00:21:28.099Z,91777.00
2023-01-20T00:22:28.036Z,91777.00
2023-01-20T00:23:27.965Z,91777.00
2023-01-20T00:24:27.891Z,91779.00
2023-01-20T00:25:27.832Z,91779.00
2023-01-20T00:26:27.780Z,91779.00
2023-01-20T00:27:27.733Z,91781.00
2023-01-20T00:28:27.709Z,91779.00
2023-01-20T00:29:27.635Z,91779.00
2023-01-20T00:30:27.595Z,91781.00
2023-01-20T00:31:27.755Z,91781.00
2023-01-20T00:32:27.526Z,91781.00
2023-01-20T00:33:27.449Z,91783.00
2023-01-20T00:34:27.360Z,91784.00
2023-01-20T00:35:27.300Z,91786.00
2023-01-20T00:36:27.265Z,91784.00
2023-01-20T00:37:27.190Z,91786.00
2023-01-20T00:38:27.113Z,91790.00
2023-01-20T00:39:27.009Z,91788.00
2023-01-20T00:40:26.931Z,91790.00
2023-01-20T00:41:26.887Z,91790.00
2023-01-20T00:42:26.833Z,91788.00
2023-01-20T00:43:26.761Z,91786.00
2023-01-20T00:44:26.689Z,91788.00
2023-01-20T00:45:26.622Z,91788.00
2023-01-20T00:46:26.545Z,91786.00
2023-01-20T00:47:26.431Z,91788.00
2023-01-20T00:48:26.350Z,91788.00
2023-01-20T00:49:26.283Z,91788.00
2023-01-20T00:50:26.203Z,91788.00
2023-01-20T00:51:26.134Z,91788.00
2023-01-20T00:52:26.082Z,91788.00
2023-01-20T00:53:26.007Z,91790.00
2023-01-20T00:54:25.923Z,91790.00
2023-01-20T00:56:25.732Z,91792.00
2023-01-20T00:57:25.644Z,91792.00
2023-01-20T00:58:25.549Z,91796.00
2023-01-20T01:09:25.706Z,91812.00
2023-01-20T02:03:20.679Z,91845.00
2023-01-20T02:04:20.594Z,91847.00
2023-01-20T02:05:20.488Z,91845.00
2023-01-20T02:06:20.403Z,91845.00
2023-01-20T02:07:20.333Z,91847.00
2023-01-20T02:08:20.253Z,91845.00
2023-01-20T02:09:20.177Z,91845.00
2023-01-20T02:10:20.089Z,91845.00
2023-01-20T02:11:20.008Z,91845.00
2023-01-20T02:12:19.936Z,91843.00
2023-01-20T02:13:19.840Z,91841.00
2023-01-20T02:14:19.772Z,91843.00
2023-01-20T02:15:19.687Z,91841.00
2023-01-20T02:16:19.658Z,91839.00
2023-01-20T02:17:20.217Z,91837.00
2023-01-20T02:18:19.447Z,91837.00
2023-01-20T02:19:19.368Z,91835.00
2023-01-20T02:20:19.288Z,91839.00
2023-01-20T02:21:19.180Z,91839.00
2023-01-20T02:22:19.082Z,91841.00
2023-01-20T02:23:18.997Z,91837.00
2023-01-20T02:24:18.926Z,91839.00
2023-01-20T02:25:18.849Z,91839.00
2023-01-20T02:26:18.775Z,91841.00
2023-01-20T02:27:18.678Z,91843.00
2023-01-20T02:28:18.586Z,91839.00
2023-01-20T02:29:18.498Z,91841.00
2023-01-20T02:30:18.443Z,91841.00
2023-01-20T02:31:18.390Z,91841.00
2023-01-20T02:32:18.280Z,91839.00
2023-01-20T02:33:18.174Z,91841.00
2023-01-20T02:34:18.070Z,91839.00
2023-01-20T02:35:17.980Z,91841.00
2023-01-20T02:36:17.890Z,91841.00
2023-01-20T02:37:17.802Z,91841.00
2023-01-20T02:38:17.718Z,91841.00
2023-01-20T02:39:27.343Z,91839.00
2023-01-20T02:40:18.528Z,91841.00
2023-01-20T02:41:17.446Z,91843.00
2023-01-20T02:42:17.344Z,91843.00
2023-01-20T02:43:17.254Z,91845.00
2023-01-20T02:44:17.155Z,91845.00
2023-01-20T02:45:17.274Z,91847.00
2023-01-20T02:46:16.974Z,91847.00
2023-01-20T02:47:16.885Z,91847.00
2023-01-20T02:48:16.810Z,91849.00
2023-01-20T02:49:16.724Z,91849.00
2023-01-20T02:50:16.617Z,91849.00
2023-01-20T02:51:16.521Z,91851.00
2023-01-20T02:52:16.440Z,91851.00
2023-01-20T02:53:16.348Z,91853.00
2023-01-20T02:54:16.326Z,91853.00
2023-01-20T02:55:16.592Z,91853.00
2023-01-20T02:56:16.083Z,91851.00
2023-01-20T02:57:16.000Z,91853.00
2023-01-20T02:58:15.899Z,91855.00
2023-01-20T02:59:15.815Z,91855.00
2023-01-20T03:00:15.714Z,91851.00
2023-01-20T03:01:15.730Z,91855.00
2023-01-20T03:02:15.539Z,91857.00
2023-01-20T04:19:09.298Z,91904.00
2023-01-20T04:20:09.184Z,91902.00
2023-01-20T04:21:09.132Z,91902.00
2023-01-20T04:22:09.059Z,91902.00
2023-01-20T04:23:08.960Z,91900.00
2023-01-20T04:24:08.881Z,91904.00
2023-01-20T04:25:08.789Z,91902.00
2023-01-20T04:26:08.720Z,91902.00
2023-01-20T04:27:08.673Z,91900.00
2023-01-20T04:28:08.560Z,91904.00
2023-01-20T04:29:11.100Z,91906.00
2023-01-20T04:30:08.424Z,91904.00
2023-01-20T04:31:18.117Z,91904.00
2023-01-20T04:32:09.279Z,91906.00
2023-01-20T04:33:08.147Z,91906.00
2023-01-20T04:34:08.069Z,91904.00
2023-01-20T04:35:07.984Z,91908.00
2023-01-20T04:36:07.880Z,91908.00
2023-01-20T04:37:07.792Z,91906.00
2023-01-20T04:38:07.709Z,91906.00
2023-01-20T04:39:07.612Z,91908.00
2023-01-20T04:40:07.513Z,91906.00
2023-01-20T04:41:07.421Z,91908.00
2023-01-20T04:42:07.336Z,91910.00
2023-01-20T04:43:07.240Z,91906.00
2023-01-20T04:44:07.149Z,91906.00
2023-01-20T04:45:07.104Z,91908.00
2023-01-20T04:46:07.075Z,91908.00
2023-01-20T04:47:06.928Z,91910.00
2023-01-20T04:48:06.907Z,91910.00
2023-01-20T04:49:06.864Z,91914.00
2023-01-20T04:50:06.766Z,91914.00
2023-01-20T04:51:06.671Z,91916.00
2023-01-20T04:52:06.592Z,91914.00
2023-01-20T04:53:06.505Z,91916.00
2023-01-20T04:54:06.428Z,91918.00
2023-01-20T04:55:06.294Z,91920.00
2023-01-20T04:56:06.230Z,91920.00
2023-01-20T04:57:06.165Z,91920.00
2023-01-20T04:58:06.090Z,91922.00
2023-01-20T04:59:05.993Z,91920.00
2023-01-20T05:00:05.918Z,91925.00
2023-01-20T05:01:05.844Z,91927.00
2023-01-20T05:02:05.784Z,91929.00
2023-01-20T05:03:05.680Z,91931.00
2023-01-20T05:04:05.584Z,91933.00
2023-01-20T05:05:05.552Z,91937.00
2023-01-20T05:38:04.082Z,91978.00
2023-01-20T05:39:04.022Z,91980.00
2023-01-20T05:40:03.967Z,91982.00
2023-01-20T05:41:03.888Z,91982.00
2023-01-20T05:42:03.798Z,91984.00
2023-01-20T05:43:03.700Z,91986.00
2023-01-20T05:44:03.606Z,91988.00
2023-01-20T05:45:03.510Z,91988.00
2023-01-20T05:46:03.460Z,91990.00
2023-01-20T05:47:03.373Z,91992.00
2023-01-20T05:48:03.334Z,91990.00
2023-01-20T05:49:03.265Z,91992.00
2023-01-20T05:50:03.199Z,91994.00
2023-01-20T05:51:03.126Z,91996.00
2023-01-20T05:52:03.076Z,92000.00
2023-01-20T05:53:03.017Z,92002.00
2023-01-20T05:54:02.984Z,92002.00
2023-01-20T05:55:02.918Z,92002.00
2023-01-20T05:56:02.888Z,92004.00
2023-01-20T05:57:02.809Z,92006.00
2023-01-20T05:58:02.719Z,92006.00
2023-01-20T05:59:02.644Z,92008.00
2023-01-20T06:00:02.566Z,92012.00
2023-01-20T06:01:02.544Z,92012.00
2023-01-20T06:02:02.450Z,92012.00
2023-01-20T06:03:02.509Z,92016.00
2023-01-20T06:04:02.406Z,92014.00
2023-01-20T06:05:02.304Z,92018.00
2023-01-20T06:06:02.279Z,92018.00
2023-01-20T06:07:02.222Z,92022.00
2023-01-20T06:08:02.208Z,92022.00
2023-01-20T06:09:02.181Z,92025.00
2023-01-20T06:10:02.165Z,92025.00
2023-01-20T06:11:02.115Z,92027.00
2023-01-20T06:12:02.093Z,92025.00
2023-01-20T06:13:02.066Z,92027.00
2023-01-20T06:14:02.030Z,92029.00
2023-01-20T06:15:01.984Z,92029.00
2023-01-20T06:16:01.938Z,92029.00
2023-01-20T06:17:01.852Z,92029.00
2023-01-20T06:18:01.748Z,92031.00
2023-01-20T06:19:01.669Z,92031.00
2023-01-20T06:20:01.629Z,92031.00
2023-01-20T06:21:01.559Z,92035.00
2023-01-20T06:22:01.536Z,92041.00
2023-01-20T06:23:01.464Z,92039.00
2023-01-20T06:24:01.385Z,92043.00
2023-01-20T06:25:01.304Z,92041.00
2023-01-20T06:27:01.167Z,92045.00
2023-01-20T06:28:01.097Z,92049.00
2023-01-20T06:29:01.042Z,92039.00
2023-01-20T06:30:01.151Z,92045.00
2023-01-20T06:31:00.986Z,92049.00
2023-01-20T06:32:00.874Z,92047.00
2023-01-20T06:33:00.799Z,92045.00
2023-01-20T06:34:00.777Z,92047.00
2023-01-20T06:35:00.741Z,92053.00
2023-01-20T06:36:00.686Z,92051.00
2023-01-20T06:37:00.659Z,92053.00
2023-01-20T06:38:00.609Z,92055.00
2023-01-20T06:39:00.566Z,92062.00
2023-01-20T06:40:00.556Z,92055.00
2023-01-20T06:41:00.481Z,92064.00
2023-01-20T06:42:00.453Z,92062.00
2023-01-20T06:43:00.405Z,92064.00
2023-01-20T06:44:00.379Z,92062.00
2023-01-20T06:45:00.333Z,92064.00
2023-01-20T06:46:00.297Z,92068.00
2023-01-20T06:47:00.250Z,92068.00
2023-01-20T06:48:00.204Z,92070.00
2023-01-20T06:49:00.264Z,92070.00
2023-01-20T06:50:00.305Z,92072.00
2023-01-20T06:51:00.001Z,92074.00
2023-01-20T06:51:59.911Z,92076.00
2023-01-20T06:52:59.808Z,92074.00
2023-01-20T06:53:59.840Z,92078.00
2023-01-20T06:54:59.609Z,92078.00
2023-01-20T06:55:59.548Z,92074.00
2023-01-20T06:56:59.410Z,92080.00
2023-01-20T06:57:59.326Z,92082.00
2023-01-20T06:58:59.232Z,92080.00
2023-01-20T06:59:59.142Z,92082.00
2023-01-20T07:00:59.150Z,92084.00
2023-01-20T07:01:59.095Z,92086.00
2023-01-20T07:02:58.886Z,92088.00
2023-01-20T07:03:58.794Z,92090.00
2023-01-20T07:04:58.707Z,92094.00
2023-01-20T07:05:58.639Z,92094.00
2023-01-20T07:06:58.589Z,92092.00
2023-01-20T07:07:58.556Z,92098.00
2023-01-20T07:08:58.956Z,92098.00
2023-01-20T07:09:58.504Z,92098.00
2023-01-20T07:10:58.467Z,92100.00
2023-01-20T07:11:58.430Z,92104.00
2023-01-20T07:12:58.445Z,92104.00
2023-01-20T07:13:58.365Z,92106.00
2023-01-20T07:14:58.330Z,92109.00
2023-01-20T07:15:58.312Z,92109.00
2023-01-20T07:16:58.249Z,92109.00
2023-01-20T07:17:58.189Z,92111.00
2023-01-20T07:18:58.159Z,92111.00
2023-01-20T07:19:58.084Z,92113.00
2023-01-20T07:20:58.023Z,92117.00
2023-01-20T07:21:57.971Z,92121.00
2023-01-20T07:22:57.913Z,92121.00
2023-01-20T07:23:57.852Z,92123.00
2023-01-20T07:24:57.786Z,92123.00
2023-01-20T07:25:57.735Z,92127.00
2023-01-20T07:27:57.613Z,92129.00
2023-01-20T07:28:58.317Z,92129.00
2023-01-20T07:30:00.244Z,92129.00
2023-01-20T07:30:58.340Z,92129.00
2023-01-20T07:31:57.748Z,92133.00
2023-01-20T07:32:57.702Z,92133.00
2023-01-20T07:33:57.518Z,92133.00
2023-01-20T07:34:57.415Z,92131.00
2023-01-20T07:35:57.329Z,92137.00
2023-01-20T07:36:57.823Z,92137.00
2023-01-20T07:37:57.204Z,92141.00
2023-01-20T07:38:57.176Z,92141.00
2023-01-20T07:39:57.051Z,92141.00
2023-01-20T07:40:56.995Z,92145.00
2023-01-20T07:41:57.744Z,92145.00
2023-01-20T07:42:56.846Z,92145.00
2023-01-20T07:43:56.783Z,92147.00
2023-01-20T07:44:56.694Z,92145.00
2023-01-20T07:45:56.700Z,92149.00
2023-01-20T07:46:56.556Z,92149.00
2023-01-20T07:47:56.486Z,92153.00
2023-01-20T07:48:56.418Z,92153.00
2023-01-20T07:49:56.347Z,92153.00
2023-01-20T07:50:56.265Z,92155.00
2023-01-20T07:51:56.202Z,92157.00
2023-01-20T07:52:56.128Z,92160.00
2023-01-20T07:53:56.071Z,92157.00
2023-01-20T07:54:55.985Z,92159.00
2023-01-20T07:55:55.921Z,92160.00
2023-01-20T07:56:55.849Z,92162.00
2023-01-20T07:57:55.787Z,92160.00
2023-01-20T07:58:55.726Z,92164.00
2023-01-20T07:59:55.645Z,92164.00
2023-01-20T08:00:55.600Z,92164.00
2023-01-20T08:01:55.514Z,92168.00
2023-01-20T09:53:47.665Z,92268.00
2023-01-20T09:54:47.576Z,92270.00
2023-01-20T09:55:47.488Z,92270.00
2023-01-20T09:56:47.380Z,92272.00
2023-01-20T09:57:47.286Z,92270.00
2023-01-20T09:58:47.203Z,92272.00
2023-01-20T09:59:47.113Z,92270.00
2023-01-20T10:00:47.005Z,92268.00
2023-01-20T10:01:47.000Z,92270.00
2023-01-20T10:02:46.808Z,92268.00
2023-01-20T10:03:46.717Z,92270.00
2023-01-20T10:04:46.619Z,92270.00
2023-01-20T10:05:46.532Z,92272.00
2023-01-20T10:06:46.439Z,92268.00
2023-01-20T10:07:46.355Z,92268.00
2023-01-20T10:09:03.717Z,92270.00
2023-01-20T10:09:47.126Z,92268.00
2023-01-20T10:10:46.013Z,92266.00
2023-01-20T10:11:45.907Z,92270.00
2023-01-20T10:12:45.805Z,92274.00
2023-01-20T10:13:45.705Z,92270.00
2023-01-20T10:14:45.596Z,92274.00
2023-01-20T11:44:39.460Z,92231.00
2023-01-20T11:59:38.752Z,92237.00
2023-01-20T12:21:37.437Z,92227.00
2023-01-20T12:25:37.234Z,92231.00
2023-01-20T12:55:36.125Z,92215.00
2023-01-20T13:00:35.994Z,92215.00
2023-01-20T13:01:35.949Z,92215.00
2023-01-20T13:02:35.945Z,92215.00
2023-01-20T13:03:35.873Z,92213.00
2023-01-20T13:04:35.839Z,92213.00
2023-01-20T13:05:35.821Z,92213.00
2023-01-20T13:06:35.795Z,92211.00
2023-01-20T13:07:35.776Z,92213.00
2023-01-20T13:08:35.756Z,92213.00
2023-01-20T13:09:35.743Z,92213.00
2023-01-20T13:10:35.723Z,92215.00
2023-01-20T13:11:35.686Z,92213.00
2023-01-20T13:12:35.661Z,92215.00
2023-01-20T13:13:48.087Z,92213.00
2023-01-20T13:14:36.541Z,92217.00
2023-01-20T15:54:27.129Z,92372.00
2023-01-20T15:55:27.074Z,92374.00
2023-01-20T15:56:27.018Z,92376.00
2023-01-20T15:57:26.951Z,92378.00
2023-01-20T15:58:26.893Z,92380.00
2023-01-20T15:59:26.832Z,92380.00
2023-01-20T16:00:26.783Z,92380.00
2023-01-20T16:03:26.622Z,92382.00
2023-01-20T16:04:26.541Z,92386.00
2023-01-20T16:05:26.493Z,92386.00
2023-01-20T16:06:26.456Z,92388.00
2023-01-20T16:07:26.373Z,92388.00
2023-01-20T16:08:26.281Z,92390.00
2023-01-20T16:09:26.226Z,92394.00
2023-01-20T16:10:26.099Z,92392.00
2023-01-20T16:11:26.037Z,92392.00
2023-01-20T16:12:25.936Z,92396.00
2023-01-20T16:13:25.830Z,92396.00
2023-01-20T16:14:25.729Z,92394.00
2023-01-20T16:15:25.697Z,92397.00
2023-01-20T16:16:28.689Z,92397.00
2023-01-20T17:17:19.725Z,92454.00
2023-01-20T17:18:19.613Z,92456.00
2023-01-20T17:20:19.455Z,92460.00
2023-01-20T17:21:19.354Z,92462.00
2023-01-20T17:22:19.275Z,92460.00
2023-01-20T17:23:19.223Z,92464.00
2023-01-20T17:24:19.132Z,92466.00
2023-01-20T17:25:19.048Z,92468.00
2023-01-20T17:26:18.966Z,92466.00
2023-01-20T17:27:18.897Z,92468.00
2023-01-20T17:28:18.819Z,92466.00
2023-01-20T17:29:18.753Z,92468.00
2023-01-20T17:30:18.854Z,92470.00
2023-01-20T17:31:18.599Z,92470.00
2023-01-20T17:32:18.481Z,92472.00
2023-01-20T17:33:18.419Z,92474.00
2023-01-20T17:34:18.387Z,92476.00
2023-01-20T17:35:18.338Z,92476.00
2023-01-20T17:36:18.310Z,92478.00
2023-01-20T17:37:18.259Z,92482.00
2023-01-20T17:38:18.235Z,92484.00
2023-01-20T17:39:18.158Z,92482.00
2023-01-20T17:40:18.513Z,92482.00
2023-01-20T17:41:18.010Z,92484.00
2023-01-20T17:42:17.918Z,92488.00
2023-01-20T17:43:17.838Z,92486.00
2023-01-20T17:44:17.761Z,92488.00
2023-01-20T17:45:17.676Z,92488.00
2023-01-20T17:46:17.627Z,92486.00
2023-01-20T17:47:17.482Z,92482.00
2023-01-20T17:48:17.402Z,92484.00
2023-01-20T17:49:17.315Z,92484.00
2023-01-20T17:50:17.501Z,92490.00
2023-01-20T17:51:17.188Z,92490.00
2023-01-20T17:52:17.060Z,92484.00
2023-01-20T17:53:16.977Z,92492.00
2023-01-20T17:54:16.908Z,92486.00
2023-01-20T17:55:17.074Z,92488.00
2023-01-20T17:56:16.742Z,92494.00
2023-01-20T17:57:16.649Z,92488.00
2023-01-20T17:58:16.535Z,92486.00
2023-01-20T17:59:16.445Z,92488.00
2023-01-20T18:00:16.627Z,92486.00
2023-01-20T18:01:16.340Z,92486.00
2023-01-20T18:02:16.176Z,92486.00
2023-01-20T18:03:16.086Z,92488.00
2023-01-20T18:04:16.007Z,92490.00
2023-01-20T18:05:15.949Z,92488.00
2023-01-20T18:06:15.917Z,92490.00
2023-01-20T18:07:15.830Z,92490.00
2023-01-20T18:08:15.805Z,92490.00
2023-01-20T18:09:15.740Z,92490.00
2023-01-20T18:10:15.871Z,92490.00
2023-01-20T18:11:15.549Z,92490.00
2023-01-20T18:25:14.475Z,92498.00
2023-01-20T18:26:14.365Z,92496.00
2023-01-20T18:27:14.292Z,92496.00
2023-01-20T18:28:14.195Z,92496.00
2023-01-20T18:29:14.108Z,92496.00
2023-01-20T18:30:14.258Z,92494.00
2023-01-20T18:31:14.036Z,92492.00
2023-01-20T19:51:07.324Z,92507.00
2023-01-20T19:52:07.221Z,92505.00
2023-01-20T19:53:07.141Z,92505.00
2023-01-20T19:54:07.038Z,92507.00
2023-01-20T19:55:07.045Z,92505.00
2023-01-20T19:56:06.862Z,92509.00
2023-01-20T19:57:06.778Z,92507.00
2023-01-20T19:58:06.686Z,92507.00
2023-01-20T19:59:06.604Z,92507.00
2023-01-20T20:00:06.505Z,92513.00
2023-01-20T20:01:06.451Z,92513.00
2023-01-20T20:02:06.343Z,92515.00
2023-01-20T20:03:06.252Z,92517.00
2023-01-20T20:04:06.171Z,92519.00
2023-01-20T20:05:06.077Z,92519.00
2023-01-20T20:06:06.003Z,92519.00
2023-01-20T20:07:05.905Z,92519.00
2023-01-20T20:08:05.845Z,92523.00
2023-01-20T20:09:05.765Z,92523.00
2023-01-20T20:10:05.675Z,92525.00
2023-01-20T20:11:05.599Z,92525.00
2023-01-20T20:12:05.544Z,92525.00
2023-01-20T21:58:56.342Z,92558.00
2023-01-20T21:59:56.262Z,92560.00
2023-01-20T22:00:56.215Z,92558.00
2023-01-20T22:01:56.088Z,92560.00
2023-01-20T22:02:56.000Z,92560.00
2023-01-20T22:03:55.937Z,92560.00
2023-01-20T22:04:55.841Z,92558.00
2023-01-20T22:05:55.730Z,92560.00
2023-01-20T22:06:55.654Z,92558.00
2023-01-20T22:07:55.563Z,92560.00
2023-01-20T23:50:46.912Z,92576.00
2023-01-20T23:51:46.779Z,92568.00
2023-01-20T23:52:46.685Z,92566.00
2023-01-20T23:53:46.630Z,92566.00
2023-01-20T23:54:46.528Z,92566.00
2023-01-20T23:55:46.449Z,92568.00
2023-01-20T23:56:46.377Z,92566.00
2023-01-20T23:57:46.297Z,92568.00
2023-01-20T23:58:46.204Z,92576.00
2023-01-20T23:59:46.134Z,92576.00
